Time;durP1;ratioP1;P1;durP2;ratioP2;P2;SDS_P1;SDS_P2;PMS_P1;PMS_P2;Temp;Humidity;BMP_temperature;BMP_pressure;BME280_temperature;BME280_humidity;BME280_pressure;Samples;Min_cycle;Max_cycle;Signal;HPM_P1;HPM_P2
2021/06/11 00:00:18;;;;;;;13.13;8.50;;;;;;;14.00;79.45;100743.69;1861688;77;21046;-61
2021/06/11 00:02:45;;;;;;;15.75;8.90;;;;;;;13.99;79.46;100740.20;1861780;77;21034;-59
2021/06/11 00:05:13;;;;;;;15.90;8.98;;;;;;;13.98;79.48;100744.24;1861714;77;21465;-59
2021/06/11 00:07:41;;;;;;;15.35;9.85;;;;;;;13.94;79.46;100740.90;1862586;75;21649;-59
2021/06/11 00:10:11;;;;;;;14.95;9.30;;;;;;;13.92;79.44;100743.25;1864281;77;21477;-59
2021/06/11 00:12:40;;;;;;;12.30;9.30;;;;;;;13.92;79.67;100743.25;1864203;77;21038;-61
2021/06/11 00:15:10;;;;;;;16.80;10.05;;;;;;;13.90;79.64;100746.82;1864123;77;21097;-59
2021/06/11 00:17:38;;;;;;;13.00;9.05;;;;;;;13.90;79.73;100752.12;1864183;76;21112;-59
2021/06/11 00:20:08;;;;;;;10.98;8.13;;;;;;;13.89;79.67;100755.72;1864196;77;21496;-58
2021/06/11 00:22:40;;;;;;;16.50;9.03;;;;;;;13.88;79.67;100750.02;1864165;76;21037;-58
2021/06/11 00:25:09;;;;;;;16.82;9.33;;;;;;;13.89;79.84;100745.13;1864167;77;21136;-59
2021/06/11 00:27:38;;;;;;;13.93;9.85;;;;;;;13.92;80.02;100743.25;1864163;76;21125;-59
2021/06/11 00:30:07;;;;;;;13.43;9.03;;;;;;;13.97;80.13;100743.88;1864188;77;21481;-59
2021/06/11 00:32:36;;;;;;;10.68;7.95;;;;;;;13.99;80.11;100735.37;1864198;77;21042;-60
2021/06/11 00:35:06;;;;;;;12.93;7.78;;;;;;;13.96;80.03;100741.70;1864165;77;21116;-59
2021/06/11 00:37:34;;;;;;;13.65;8.45;;;;;;;13.94;80.05;100742.70;1864168;77;21116;-59
2021/06/11 00:40:02;;;;;;;14.98;10.15;;;;;;;13.92;80.00;100743.25;1864142;76;21535;-59
2021/06/11 00:42:30;;;;;;;12.90;8.58;;;;;;;13.90;79.99;100741.53;1864205;77;21505;-59
2021/06/11 00:44:58;;;;;;;13.60;8.48;;;;;;;13.87;80.01;100740.39;1864177;77;21503;-59
2021/06/11 00:47:25;;;;;;;14.15;9.05;;;;;;;13.87;80.04;100745.68;1864183;77;21487;-60
2021/06/11 00:49:54;;;;;;;14.85;9.78;;;;;;;13.85;80.06;100742.27;1864328;77;21513;-59
2021/06/11 00:52:22;;;;;;;15.23;9.68;;;;;;;13.86;80.23;100747.92;1864164;77;21061;-60
2021/06/11 00:54:50;;;;;;;13.18;8.58;;;;;;;13.87;80.31;100741.72;1864280;77;21090;-59
2021/06/11 00:57:18;;;;;;;14.50;8.73;;;;;;;13.88;80.49;100740.76;1864219;77;21468;-59
2021/06/11 00:59:46;;;;;;;14.15;8.08;;;;;;;13.86;80.31;100745.76;1864282;77;21472;-59
2021/06/11 01:02:15;;;;;;;14.73;9.33;;;;;;;13.81;80.19;100753.92;1864355;77;21488;-59
2021/06/11 01:04:43;;;;;;;15.32;9.55;;;;;;;13.77;80.24;100751.05;1864204;77;21042;-59
2021/06/11 01:07:12;;;;;;;14.70;8.43;;;;;;;13.75;80.33;100754.73;1864192;77;21658;-61
2021/06/11 01:09:42;;;;;;;18.25;9.48;;;;;;;13.68;80.27;100743.16;1864350;75;21082;-60
2021/06/11 01:12:11;;;;;;;17.60;10.70;;;;;;;13.66;80.25;100750.77;1864178;77;21022;-58
2021/06/11 01:14:40;;;;;;;14.50;8.60;;;;;;;13.61;80.27;100750.14;1864175;77;21050;-59
2021/06/11 01:17:08;;;;;;;20.82;10.72;;;;;;;13.56;80.24;100740.28;1864190;77;21124;-60
2021/06/11 01:19:45;;;;;;;18.23;9.93;;;;;;;13.53;80.27;100745.72;1864200;77;21023;-59
2021/06/11 01:22:38;;;;;;;15.28;10.00;;;;;;;13.50;80.42;100746.27;1864024;76;21018;-59
2021/06/11 01:25:15;;;;;;;18.90;10.78;;;;;;;13.50;80.48;100748.92;1864162;77;21030;-59
2021/06/11 01:27:46;;;;;;;17.30;10.80;;;;;;;13.50;80.51;100750.69;1863872;76;21043;-59
2021/06/11 01:30:17;;;;;;;18.48;9.35;;;;;;;13.49;80.65;100745.87;1864366;77;21038;-60
2021/06/11 01:32:48;;;;;;;16.70;9.13;;;;;;;13.47;80.65;100742.92;1864276;77;21059;-60
2021/06/11 01:35:24;;;;;;;15.50;8.95;;;;;;;13.46;80.67;100743.84;1864286;77;21045;-60
2021/06/11 01:37:57;;;;;;;16.52;9.38;;;;;;;13.42;80.64;100735.21;1864149;77;21085;-59
2021/06/11 01:40:25;;;;;;;16.80;10.65;;;;;;;13.41;80.64;100738.81;1863698;77;21077;-60
2021/06/11 01:42:54;;;;;;;13.80;8.60;;;;;;;13.42;80.91;100737.86;1864248;77;21603;-60
2021/06/11 01:45:23;;;;;;;15.93;9.75;;;;;;;13.42;80.79;100741.83;1864199;77;21133;-59
2021/06/11 01:47:52;;;;;;;20.10;10.95;;;;;;;13.44;80.90;100741.27;1864189;77;21512;-59
2021/06/11 01:50:23;;;;;;;18.95;10.30;;;;;;;13.44;80.90;100750.53;1864149;77;21491;-59
2021/06/11 01:52:56;;;;;;;21.50;9.65;;;;;;;13.44;81.00;100744.39;1864087;77;21049;-60
2021/06/11 01:55:24;;;;;;;15.95;8.85;;;;;;;13.43;80.89;100744.02;1864282;77;21039;-60
2021/06/11 01:57:53;;;;;;;20.57;8.40;;;;;;;13.43;80.87;100747.52;1864135;76;21120;-60
2021/06/11 02:00:21;;;;;;;15.38;8.85;;;;;;;13.43;80.82;100747.52;1864122;77;21021;-59
2021/06/11 02:02:50;;;;;;;15.28;9.50;;;;;;;13.44;80.87;100755.82;1864150;77;21058;-59
2021/06/11 02:05:19;;;;;;;16.57;8.98;;;;;;;13.46;80.96;100753.98;1864203;76;21484;-60
2021/06/11 02:07:49;;;;;;;18.27;9.43;;;;;;;13.58;81.32;100755.61;1864103;77;21042;-59
2021/06/11 02:10:19;;;;;;;13.18;8.85;;;;;;;13.72;81.45;100762.34;1862080;75;21097;-59
2021/06/11 02:12:48;;;;;;;19.65;9.83;;;;;;;13.83;81.53;100760.47;1861702;77;21046;-59
2021/06/11 02:15:17;;;;;;;17.90;7.95;;;;;;;13.97;81.53;100757.11;1861788;77;21022;-59
2021/06/11 02:17:47;;;;;;;17.15;9.08;;;;;;;14.08;81.66;100755.59;1861667;77;21043;-60
2021/06/11 02:20:18;;;;;;;13.98;8.60;;;;;;;14.21;81.71;100758.44;1861819;77;21491;-58
2021/06/11 02:22:47;;;;;;;23.22;7.78;;;;;;;14.36;81.71;100758.55;1861694;77;21046;-58
2021/06/11 02:25:16;;;;;;;14.07;8.45;;;;;;;14.49;81.68;100750.30;1861731;77;21155;-59
2021/06/11 02:27:46;;;;;;;12.93;8.68;;;;;;;14.64;81.68;100755.25;1861697;77;21120;-59
2021/06/11 02:30:17;;;;;;;13.18;8.13;;;;;;;14.80;81.70;100749.95;1861833;77;21175;-59
2021/06/11 02:32:45;;;;;;;12.98;8.15;;;;;;;15.00;81.82;100761.61;1861715;77;21046;-59
2021/06/11 02:35:16;;;;;;;12.20;7.28;;;;;;;15.19;81.80;100767.17;1861717;77;21042;-60
2021/06/11 02:37:45;;;;;;;14.28;7.70;;;;;;;15.38;81.66;100763.84;1861640;76;21027;-59
2021/06/11 02:40:14;;;;;;;13.83;8.03;;;;;;;15.56;81.43;100759.70;1861651;77;21108;-58
2021/06/11 02:42:44;;;;;;;12.85;7.65;;;;;;;15.73;81.14;100759.56;1861689;77;21143;-60
2021/06/11 02:45:15;;;;;;;11.90;7.67;;;;;;;15.92;80.80;100763.80;1861679;77;21147;-59
2021/06/11 02:48:00;;;;;;;9.90;7.20;;;;;;;16.30;80.12;100769.36;1861684;77;21023;-58
2021/06/11 02:50:34;;;;;;;10.08;7.00;;;;;;;16.55;79.46;100768.68;1861705;77;21037;-58
2021/06/11 02:53:04;;;;;;;9.45;6.45;;;;;;;16.72;79.33;100766.75;1861603;77;21073;-58
2021/06/11 02:55:33;;;;;;;15.03;7.97;;;;;;;16.81;79.05;100766.64;1861707;77;21085;-59
2021/06/11 02:58:19;;;;;;;14.55;7.90;;;;;;;16.94;78.84;100775.55;1861690;77;21053;-59
2021/06/11 03:00:48;;;;;;;11.70;6.83;;;;;;;17.10;78.71;100766.11;1861805;77;21043;-58
2021/06/11 03:03:24;;;;;;;10.78;7.42;;;;;;;17.26;78.28;100766.77;1861799;77;21119;-59
2021/06/11 03:05:55;;;;;;;10.28;6.80;;;;;;;17.43;77.97;100765.66;1860285;77;21198;-58
2021/06/11 03:08:25;;;;;;;10.48;5.30;;;;;;;17.62;77.65;100770.58;1860559;77;21018;-58
2021/06/11 03:10:59;;;;;;;12.65;5.45;;;;;;;17.75;77.17;100766.11;1889109;76;21083;-61
2021/06/11 03:13:29;;;;;;;11.73;5.00;;;;;;;17.88;76.75;100769.30;1892083;76;21554;-59
2021/06/11 03:15:59;;;;;;;7.50;4.85;;;;;;;17.96;76.12;100766.94;1891992;76;21025;-58
2021/06/11 03:18:32;;;;;;;7.87;4.37;;;;;;;18.01;75.70;100771.48;1891915;76;21048;-59
2021/06/11 03:21:07;;;;;;;;;;;;;;;18.05;75.21;100772.96;1894719;75;21126;-59
2021/06/11 03:23:46;;;;;;;7.42;4.33;;;;;;;18.09;74.95;100770.94;1891343;76;20406;-59
2021/06/11 03:26:17;;;;;;;7.45;5.05;;;;;;;18.12;75.08;100766.25;1892017;75;21518;-60
2021/06/11 03:28:54;;;;;;;9.60;4.67;;;;;;;18.12;74.62;100768.91;1891807;75;21133;-60
2021/06/11 03:31:24;;;;;;;5.45;4.37;;;;;;;18.11;74.30;100767.68;1891953;76;21051;-59
2021/06/11 03:33:55;;;;;;;12.68;5.92;;;;;;;18.14;74.25;100765.66;1891924;75;21658;-59
2021/06/11 03:36:25;;;;;;;8.13;5.10;;;;;;;18.20;74.23;100758.20;1891797;76;21130;-60
2021/06/11 03:38:56;;;;;;;6.72;4.67;;;;;;;18.27;74.29;100771.46;1891669;76;21039;-60
2021/06/11 03:41:24;;;;;;;9.80;5.42;;;;;;;18.34;74.10;100768.73;1891801;76;21137;-60
2021/06/11 03:43:53;;;;;;;10.80;4.80;;;;;;;18.45;74.16;100775.48;1892028;76;21087;-59
2021/06/11 03:46:22;;;;;;;6.37;4.85;;;;;;;18.61;74.10;100774.37;1891979;76;21012;-60
2021/06/11 03:48:52;;;;;;;8.83;5.22;;;;;;;18.76;73.83;100778.61;1892053;76;21051;-59
2021/06/11 03:51:21;;;;;;;6.85;4.75;;;;;;;18.92;73.55;100784.18;1892041;76;21063;-60
2021/06/11 03:53:50;;;;;;;9.05;4.72;;;;;;;19.01;73.07;100782.17;1823049;79;21568;-59
2021/06/11 03:56:21;;;;;;;7.25;4.58;;;;;;;19.12;72.91;100784.05;1821341;79;21458;-59
2021/06/11 03:58:51;;;;;;;10.63;5.15;;;;;;;19.23;72.51;100784.94;1853544;77;21132;-59
2021/06/11 04:01:24;;;;;;;5.20;4.33;;;;;;;19.35;72.28;100779.17;1822969;79;21078;-59
2021/06/11 04:03:54;;;;;;;6.92;4.35;;;;;;;19.52;71.78;100784.57;1805560;79;21135;-59
2021/06/11 04:06:24;;;;;;;9.58;4.75;;;;;;;19.71;71.32;100785.83;1891852;76;21067;-60
2021/06/11 04:08:54;;;;;;;7.90;4.30;;;;;;;19.89;70.71;100793.80;1891763;75;21558;-60
2021/06/11 04:11:25;;;;;;;5.92;4.80;;;;;;;20.09;70.16;100798.09;1891662;75;21592;-59
2021/06/11 04:13:58;;;;;;;5.45;4.67;;;;;;;20.28;69.69;100802.34;1891783;76;21068;-60
2021/06/11 04:16:41;;;;;;;5.90;4.42;;;;;;;20.51;69.10;100804.53;1890909;76;21044;-60
2021/06/11 04:19:11;;;;;;;8.23;6.33;;;;;;;20.73;68.23;100799.68;1892155;76;21115;-60
2021/06/11 04:21:40;;;;;;;8.70;5.15;;;;;;;21.04;68.01;100801.17;1892013;76;21050;-60
2021/06/11 04:24:11;;;;;;;6.72;5.15;;;;;;;21.26;66.56;100799.41;1891981;76;21039;-60
2021/06/11 04:26:40;;;;;;;7.35;4.97;;;;;;;21.51;66.07;100800.92;1891977;76;21117;-60
2021/06/11 04:29:11;;;;;;;6.83;4.50;;;;;;;21.88;65.79;100800.47;1891948;76;21497;-60
2021/06/11 04:31:40;;;;;;;12.00;5.08;;;;;;;22.05;63.89;100794.98;1891952;76;21111;-59
2021/06/11 04:34:08;;;;;;;7.97;4.80;;;;;;;22.23;63.25;100785.33;1892020;76;21048;-58
2021/06/11 04:36:36;;;;;;;5.67;4.90;;;;;;;22.33;62.13;100792.94;1892112;76;21485;-59
2021/06/11 04:39:08;;;;;;;5.83;4.42;;;;;;;22.34;60.49;100791.97;1892040;76;21162;-59
2021/06/11 04:41:36;;;;;;;6.28;4.20;;;;;;;22.35;60.76;100789.66;1892019;76;21025;-59
2021/06/11 04:44:06;;;;;;;7.83;4.30;;;;;;;22.56;60.81;100787.40;1891927;76;21056;-59
2021/06/11 04:46:35;;;;;;;4.85;4.35;;;;;;;22.64;59.70;100791.58;1891958;76;21036;-59
2021/06/11 04:49:07;;;;;;;6.90;4.53;;;;;;;22.74;59.05;100791.59;1891585;76;21051;-59
2021/06/11 04:51:36;;;;;;;4.75;3.60;;;;;;;22.70;58.37;100792.86;1891986;76;21509;-59
2021/06/11 04:54:05;;;;;;;9.00;4.62;;;;;;;22.66;58.10;100780.20;1891981;76;21044;-59
2021/06/11 04:56:33;;;;;;;8.18;3.90;;;;;;;22.77;58.20;100791.33;1891911;76;21138;-59
2021/06/11 04:59:02;;;;;;;6.40;3.47;;;;;;;22.94;58.44;100795.17;1892056;76;21021;-59
2021/06/11 05:01:30;;;;;;;5.65;4.35;;;;;;;22.97;57.32;100789.53;1892010;76;21059;-59
2021/06/11 05:03:58;;;;;;;7.45;4.30;;;;;;;22.98;57.43;100788.55;1892133;76;21113;-59
2021/06/11 05:06:26;;;;;;;5.83;4.47;;;;;;;23.12;57.18;100792.18;1891971;76;21137;-59
2021/06/11 05:08:54;;;;;;;4.62;4.12;;;;;;;23.37;56.59;100790.42;1891834;76;21134;-59
2021/06/11 05:11:22;;;;;;;4.60;3.72;;;;;;;23.47;56.90;100793.45;1874278;76;21486;-59
2021/06/11 05:13:50;;;;;;;5.70;3.95;;;;;;;23.71;56.57;100797.55;1864163;77;21504;-59
2021/06/11 05:16:18;;;;;;;5.08;3.80;;;;;;;23.98;56.18;100802.70;1864127;77;21492;-59
2021/06/11 05:18:46;;;;;;;4.67;4.17;;;;;;;24.01;55.12;100799.70;1864300;77;21538;-59
2021/06/11 05:21:13;;;;;;;4.42;3.92;;;;;;;24.21;55.12;100801.33;1864144;77;21483;-59
2021/06/11 05:23:41;;;;;;;7.05;4.40;;;;;;;24.31;55.14;100807.16;1864174;77;21421;-59
2021/06/11 05:26:09;;;;;;;5.53;4.25;;;;;;;24.50;54.71;100816.52;1864165;76;21137;-59
2021/06/11 05:28:37;;;;;;;6.58;4.00;;;;;;;24.62;54.49;100813.15;1864180;76;21138;-59
2021/06/11 05:31:04;;;;;;;6.08;3.80;;;;;;;24.83;54.18;100811.05;1864171;77;21528;-60
2021/06/11 05:33:32;;;;;;;4.92;3.67;;;;;;;25.11;53.85;100815.56;1864164;76;21112;-59
2021/06/11 05:36:00;;;;;;;6.30;3.70;;;;;;;25.25;53.33;100815.06;1864053;77;21053;-59
2021/06/11 05:38:28;;;;;;;5.15;3.52;;;;;;;25.45;52.40;100811.69;1864168;77;21129;-60
2021/06/11 05:40:58;;;;;;;7.30;3.40;;;;;;;25.52;51.21;100818.66;1864278;76;21050;-58
2021/06/11 05:43:25;;;;;;;4.10;3.17;;;;;;;25.55;50.85;100815.67;1864056;77;21152;-58
2021/06/11 05:45:53;;;;;;;6.40;3.42;;;;;;;25.73;50.90;100808.39;1864248;77;21477;-59
2021/06/11 05:48:21;;;;;;;5.60;3.60;;;;;;;25.78;49.68;100812.82;1864100;76;21508;-60
2021/06/11 05:50:49;;;;;;;6.62;3.72;;;;;;;25.76;49.88;100812.11;1864212;77;22209;-58
2021/06/11 05:53:22;;;;;;;6.17;3.62;;;;;;;25.96;50.21;100817.34;1864147;76;21484;-59
2021/06/11 05:55:46;;;;;;;6.53;3.55;;;;;;;26.16;49.70;100824.73;1863196;77;21131;-59
2021/06/11 05:58:14;;;;;;;4.78;3.62;;;;;;;26.34;49.36;100820.61;1864264;76;21124;-58
2021/06/11 06:00:41;;;;;;;4.83;3.83;;;;;;;26.47;48.26;100821.02;1864240;77;21496;-58
2021/06/11 06:03:09;;;;;;;5.30;3.58;;;;;;;26.55;47.17;100808.05;1864131;77;21434;-59
2021/06/11 06:05:37;;;;;;;5.75;3.40;;;;;;;26.51;48.08;100814.78;1864258;76;21509;-59
2021/06/11 06:08:05;;;;;;;4.95;3.50;;;;;;;26.72;48.15;100815.73;1864205;76;21565;-59
2021/06/11 06:10:33;;;;;;;6.00;4.00;;;;;;;27.00;48.03;100811.41;1864119;75;21105;-59
2021/06/11 06:13:01;;;;;;;6.08;2.92;;;;;;;27.12;47.15;100816.86;1861810;77;21054;-59
2021/06/11 06:15:28;;;;;;;4.80;3.67;;;;;;;27.30;47.13;100812.17;1861733;77;21546;-60
2021/06/11 06:17:56;;;;;;;7.72;3.30;;;;;;;27.48;46.60;100817.92;1861752;77;21589;-59
2021/06/11 06:20:24;;;;;;;7.45;4.10;;;;;;;27.49;46.09;100812.86;1861690;77;21503;-59
2021/06/11 06:22:52;;;;;;;4.22;3.17;;;;;;;27.58;45.92;100809.14;1861717;77;21504;-59
2021/06/11 06:25:20;;;;;;;7.58;3.30;;;;;;;27.63;45.71;100823.02;1861701;77;21029;-59
2021/06/11 06:27:48;;;;;;;4.30;2.60;;;;;;;27.61;45.10;100819.64;1861636;77;21062;-59
2021/06/11 06:30:17;;;;;;;4.95;3.15;;;;;;;27.64;44.94;100826.03;1861688;77;21453;-59
2021/06/11 06:32:45;;;;;;;4.80;3.40;;;;;;;27.71;44.82;100822.99;1861705;77;21042;-59
2021/06/11 06:35:13;;;;;;;5.40;3.70;;;;;;;27.83;44.63;100828.05;1861815;77;21481;-60
2021/06/11 06:37:41;;;;;;;5.83;2.90;;;;;;;27.99;44.87;100824.00;1861728;77;21042;-60
2021/06/11 06:40:09;;;;;;;4.55;3.10;;;;;;;28.25;44.45;100818.88;1861743;77;21066;-59
2021/06/11 06:42:38;;;;;;;8.50;3.55;;;;;;;28.39;43.95;100820.86;1861659;77;21120;-60
2021/06/11 06:45:12;;;;;;;4.87;2.62;;;;;;;28.53;43.52;100823.87;1861804;77;21701;-59
2021/06/11 06:47:37;;;;;;;3.72;3.33;;;;;;;28.74;43.41;100825.48;1861051;77;21110;-59
2021/06/11 06:50:06;;;;;;;5.58;3.60;;;;;;;29.03;42.26;100820.76;1861946;77;21559;-59
2021/06/11 06:52:34;;;;;;;4.47;3.22;;;;;;;28.73;42.16;100830.56;1861813;77;21093;-59
2021/06/11 06:55:01;;;;;;;4.40;3.27;;;;;;;28.44;42.52;100833.37;1861887;77;21545;-59
2021/06/11 06:57:29;;;;;;;6.45;3.40;;;;;;;28.72;42.66;100837.02;1861726;77;21555;-59
2021/06/11 06:59:57;;;;;;;7.58;3.75;;;;;;;29.03;42.13;100836.16;1861827;77;21062;-60
2021/06/11 07:02:25;;;;;;;6.25;3.62;;;;;;;28.86;42.16;100844.38;1861959;77;21086;-59
2021/06/11 07:04:53;;;;;;;5.25;3.65;;;;;;;28.48;41.74;100826.58;1861834;77;21167;-59
2021/06/11 07:07:21;;;;;;;8.80;3.85;;;;;;;28.14;42.84;100834.13;1861853;77;21190;-59
2021/06/11 07:09:49;;;;;;;4.67;3.45;;;;;;;28.11;43.00;100832.11;1861690;77;21077;-60
2021/06/11 07:12:16;;;;;;;5.90;3.60;;;;;;;28.10;43.59;100820.94;1876427;76;21087;-59
2021/06/11 07:14:44;;;;;;;5.45;3.70;;;;;;;28.08;43.95;100836.50;1892134;76;21580;-59
2021/06/11 07:17:12;;;;;;;7.25;4.33;;;;;;;28.34;44.52;100840.84;1892111;76;21486;-59
2021/06/11 07:19:40;;;;;;;4.60;3.70;;;;;;;28.70;43.45;100845.84;1892155;76;21543;-60
2021/06/11 07:22:08;;;;;;;4.33;3.80;;;;;;;28.71;43.42;100843.96;1892022;76;21572;-59
2021/06/11 07:24:38;;;;;;;5.53;3.52;;;;;;;28.21;42.99;100840.55;1891946;76;21584;-59
2021/06/11 07:27:07;;;;;;;4.97;4.03;;;;;;;28.08;43.54;100839.20;1892087;76;21137;-59
2021/06/11 07:29:42;;;;;;;5.20;3.90;;;;;;;28.29;43.44;100839.16;1892003;76;21047;-60
2021/06/11 07:32:06;;;;;;;4.97;4.47;;;;;;;28.06;43.86;100832.29;1890788;76;21068;-60
2021/06/11 07:34:34;;;;;;;4.47;3.33;;;;;;;28.45;44.60;100841.81;1892027;76;21146;-60
2021/06/11 07:37:02;;;;;;;6.00;3.55;;;;;;;28.80;42.62;100841.55;1892013;76;21424;-60
2021/06/11 07:39:30;;;;;;;4.40;3.60;;;;;;;29.02;42.48;100841.27;1892028;76;21064;-59
2021/06/11 07:41:58;;;;;;;5.35;3.52;;;;;;;28.66;42.22;100842.63;1892021;76;21059;-59
2021/06/11 07:44:26;;;;;;;6.08;3.80;;;;;;;28.46;42.29;100846.75;1892051;76;21066;-59
2021/06/11 07:46:54;;;;;;;4.03;3.50;;;;;;;28.46;42.92;100839.45;1892129;76;21176;-59
2021/06/11 07:49:22;;;;;;;5.78;3.95;;;;;;;28.58;42.66;100850.77;1891957;76;21052;-60
2021/06/11 07:51:50;;;;;;;5.10;3.33;;;;;;;28.54;42.50;100825.59;1892007;76;21020;-59
2021/06/11 07:54:18;;;;;;;5.33;3.83;;;;;;;28.47;42.51;100837.58;1892026;76;21109;-58
2021/06/11 07:56:45;;;;;;;4.33;3.60;;;;;;;28.10;43.42;100843.94;1892019;76;21021;-58
2021/06/11 07:59:15;;;;;;;4.03;3.62;;;;;;;27.98;44.14;100838.57;1892024;76;21119;-58
2021/06/11 08:01:43;;;;;;;5.75;3.80;;;;;;;28.16;44.32;100838.86;1892044;76;21445;-59
2021/06/11 08:04:11;;;;;;;7.85;3.98;;;;;;;28.36;43.77;100844.73;1891890;76;21534;-59
2021/06/11 08:06:39;;;;;;;4.37;3.75;;;;;;;28.36;42.73;100838.80;1891991;76;21043;-59
2021/06/11 08:09:08;;;;;;;4.60;3.55;;;;;;;28.23;43.81;100842.56;1891952;76;21584;-59
2021/06/11 08:11:36;;;;;;;7.00;3.65;;;;;;;28.30;43.29;100832.22;1892035;76;21122;-61
2021/06/11 08:14:04;;;;;;;5.37;3.58;;;;;;;28.63;43.06;100846.20;1891962;76;21486;-59
2021/06/11 08:16:32;;;;;;;4.70;3.95;;;;;;;28.64;42.85;100842.45;1892052;76;21565;-59
2021/06/11 08:19:00;;;;;;;3.90;3.08;;;;;;;28.94;42.52;100847.58;1891990;76;21497;-58
2021/06/11 08:21:28;;;;;;;8.05;3.77;;;;;;;28.99;41.76;100855.16;1891986;76;21533;-58
2021/06/11 08:23:56;;;;;;;8.40;3.62;;;;;;;28.78;41.82;100853.91;1891993;76;21052;-58
2021/06/11 08:26:23;;;;;;;5.80;3.42;;;;;;;28.55;42.29;100844.86;1892089;76;21102;-59
2021/06/11 08:28:51;;;;;;;5.85;4.08;;;;;;;28.67;42.40;100851.59;1892013;76;21518;-59
2021/06/11 08:31:19;;;;;;;5.70;3.42;;;;;;;28.66;42.34;100845.83;1892029;76;21525;-58
2021/06/11 08:33:47;;;;;;;4.60;3.80;;;;;;;28.62;43.24;100840.44;1892027;76;21509;-58
2021/06/11 08:36:16;;;;;;;5.10;3.90;;;;;;;28.70;42.12;100844.48;1892202;76;21505;-59
2021/06/11 08:38:44;;;;;;;4.00;3.60;;;;;;;28.48;42.60;100850.95;1892064;76;21086;-58
2021/06/11 08:41:13;;;;;;;5.62;3.77;;;;;;;28.28;42.64;100857.27;1892011;76;21048;-59
2021/06/11 08:43:41;;;;;;;6.37;3.95;;;;;;;28.22;42.69;100844.44;1891926;76;21040;-59
2021/06/11 08:46:11;;;;;;;4.00;3.45;;;;;;;28.21;43.63;100845.96;1892099;76;21087;-59
2021/06/11 08:48:39;;;;;;;3.80;3.35;;;;;;;28.25;43.97;100850.00;1891983;76;21044;-59
2021/06/11 08:51:11;;;;;;;9.25;3.67;;;;;;;28.69;43.02;100844.13;1892019;76;21482;-59
2021/06/11 08:53:39;;;;;;;5.97;3.65;;;;;;;28.71;42.83;100843.96;1892126;76;21063;-59
2021/06/11 08:56:07;;;;;;;8.38;3.58;;;;;;;28.88;42.52;100846.42;1892016;76;21547;-60
2021/06/11 08:58:39;;;;;;;5.10;4.03;;;;;;;28.95;41.90;100841.12;1891945;76;21173;-59
2021/06/11 09:01:08;;;;;;;7.55;3.30;;;;;;;29.10;41.85;100844.42;1892156;76;21021;-59
2021/06/11 09:03:47;;;;;;;6.72;3.55;;;;;;;29.21;41.14;100850.30;1891997;76;21513;-59
2021/06/11 09:06:17;;;;;;;5.60;3.70;;;;;;;28.96;42.37;100844.69;1892012;76;21110;-59
2021/06/11 09:09:01;;;;;;;5.65;3.92;;;;;;;28.87;41.73;100842.02;1891932;76;21052;-59
2021/06/11 09:11:31;;;;;;;7.58;3.33;;;;;;;28.47;42.22;100851.96;1891969;76;21079;-59
2021/06/11 09:14:04;;;;;;;7.30;3.87;;;;;;;28.30;42.85;100845.76;1872995;76;21082;-59
2021/06/11 09:16:50;;;;;;;5.30;3.42;;;;;;;28.30;43.38;100844.41;1863750;77;21116;-59
2021/06/11 09:19:23;;;;;;;7.22;4.03;;;;;;;28.32;43.85;100842.88;1864105;77;21153;-59
2021/06/11 09:22:02;;;;;;;7.65;3.83;;;;;;;28.05;42.99;100834.16;1864150;77;21139;-59
2021/06/11 09:24:27;;;;;;;6.55;3.80;;;;;;;27.80;43.61;100835.17;1862893;77;21061;-59
2021/06/11 09:27:07;;;;;;;4.20;3.50;;;;;;;27.93;43.74;100836.05;1864212;77;21149;-59
2021/06/11 09:29:38;;;;;;;5.28;3.10;;;;;;;28.21;44.15;100839.19;1864009;77;21074;-60
2021/06/11 09:32:17;;;;;;;5.55;3.72;;;;;;;28.48;43.62;100838.77;1864151;77;21132;-60
2021/06/11 09:34:47;;;;;;;5.10;3.77;;;;;;;28.64;42.29;100834.33;1864197;77;21049;-58
2021/06/11 09:37:27;;;;;;;3.35;3.05;;;;;;;28.83;42.44;100842.56;1862924;77;21551;-59
2021/06/11 09:40:02;;;;;;;4.95;3.62;;;;;;;28.49;41.28;100839.09;1864140;77;21062;-59
2021/06/11 09:42:33;;;;;;;5.50;3.50;;;;;;;28.11;42.95;100838.88;1864233;77;21047;-59
2021/06/11 09:45:04;;;;;;;5.20;3.40;;;;;;;28.03;43.83;100830.75;1864234;76;21077;-59
2021/06/11 09:47:42;;;;;;;3.52;3.15;;;;;;;28.00;43.14;100837.89;1863807;76;21107;-59
2021/06/11 09:50:16;;;;;;;5.28;3.42;;;;;;;27.64;43.24;100847.67;1864179;77;21116;-59
2021/06/11 09:53:04;;;;;;;4.45;3.60;;;;;;;27.37;44.69;100849.34;1864288;77;21140;-59
2021/06/11 09:55:45;;;;;;;5.80;3.17;;;;;;;27.34;44.71;100843.27;1864243;77;21492;-59
2021/06/11 09:58:18;;;;;;;4.70;3.30;;;;;;;27.49;44.54;100832.63;1864136;77;21165;-59
2021/06/11 10:00:57;;;;;;;;;;;;;;;27.37;44.09;100840.75;1866885;77;21015;-59
2021/06/11 10:03:30;;;;;;;4.58;3.20;;;;;;;27.46;44.52;100832.98;1864170;77;20172;-59
2021/06/11 10:06:00;;;;;;;4.45;3.25;;;;;;;27.65;44.83;100835.86;1864417;77;21472;-59
2021/06/11 10:08:29;;;;;;;4.62;3.27;;;;;;;27.57;44.90;100826.89;1864243;77;21006;-59
2021/06/11 10:10:59;;;;;;;8.55;3.92;;;;;;;27.26;44.79;100835.16;1864108;77;21018;-59
2021/06/11 10:13:28;;;;;;;5.22;3.55;;;;;;;27.08;45.96;100823.61;1863404;75;21086;-59
2021/06/11 10:15:58;;;;;;;4.30;3.15;;;;;;;27.19;45.50;100829.17;1861762;77;21586;-59
2021/06/11 10:18:26;;;;;;;3.80;3.22;;;;;;;27.02;46.21;100825.60;1861739;77;21478;-60
2021/06/11 10:20:54;;;;;;;5.90;3.87;;;;;;;26.96;46.66;100822.58;1861831;77;21179;-59
2021/06/11 10:23:24;;;;;;;3.95;3.47;;;;;;;26.85;46.68;100817.96;1861861;77;21015;-59
2021/06/11 10:25:56;;;;;;;5.67;4.00;;;;;;;26.69;47.23;100833.12;1861754;77;21041;-59
2021/06/11 10:28:26;;;;;;;4.58;3.10;;;;;;;26.70;47.21;100843.41;1862144;77;21129;-59
2021/06/11 10:30:59;;;;;;;3.75;3.22;;;;;;;26.40;46.90;100836.16;1860823;77;21516;-59
2021/06/11 10:33:46;;;;;;;4.45;3.30;;;;;;;26.35;46.94;100834.44;1860949;77;21046;-59
2021/06/11 10:36:33;;;;;;;4.10;3.42;;;;;;;26.37;47.35;100844.56;1858993;77;21145;-59
2021/06/11 10:39:18;;;;;;;5.72;3.72;;;;;;;26.21;48.43;100839.94;1861969;77;21110;-59
2021/06/11 10:42:09;;;;;;;6.72;3.62;;;;;;;26.30;47.63;100820.09;1861731;77;21110;-59
2021/06/11 10:44:46;;;;;;;5.70;3.95;;;;;;;26.35;47.75;100812.33;1861729;77;21042;-59
2021/06/11 10:47:20;;;;;;;4.25;3.62;;;;;;;26.01;48.21;100831.21;1861813;77;21919;-59
2021/06/11 10:50:01;;;;;;;6.58;3.70;;;;;;;25.80;49.22;100845.88;1861803;77;21069;-59
2021/06/11 10:52:42;;;;;;;5.47;4.10;;;;;;;25.79;49.22;100850.91;1861784;77;21046;-59
2021/06/11 10:55:19;;;;;;;7.35;4.08;;;;;;;25.74;49.33;100838.39;1861904;77;21118;-59
2021/06/11 10:58:00;;;;;;;6.12;3.40;;;;;;;25.57;49.44;100846.01;1861830;77;21105;-59
2021/06/11 11:00:41;;;;;;;8.23;3.58;;;;;;;25.59;48.77;100847.53;1861810;77;21042;-59
2021/06/11 11:03:12;;;;;;;5.70;3.40;;;;;;;25.61;49.06;100842.83;1861776;77;21143;-59
2021/06/11 11:05:42;;;;;;;5.33;3.67;;;;;;;25.71;49.67;100827.94;1859141;77;21054;-59
2021/06/11 11:08:11;;;;;;;4.50;3.85;;;;;;;25.72;49.24;100836.35;1861984;77;21090;-59
2021/06/11 11:10:47;;;;;;;4.58;3.60;;;;;;;25.67;49.17;100835.97;1861711;77;21046;-59
2021/06/11 11:13:16;;;;;;;4.03;3.58;;;;;;;25.62;49.64;100840.50;1859858;77;21095;-59
2021/06/11 11:15:49;;;;;;;4.95;3.65;;;;;;;25.56;49.60;100833.52;1863343;75;21656;-59
2021/06/11 11:18:22;;;;;;;4.28;3.58;;;;;;;25.55;50.29;100829.14;1864356;77;21054;-59
2021/06/11 11:20:48;;;;;;;4.30;3.72;;;;;;;25.54;49.86;100819.34;1863622;77;21061;-59
2021/06/11 11:23:18;;;;;;;4.80;3.62;;;;;;;25.52;50.13;100832.14;1864174;76;21073;-59
2021/06/11 11:25:47;;;;;;;5.47;3.75;;;;;;;25.52;50.04;100827.59;1864235;76;21522;-58
2021/06/11 11:28:16;;;;;;;10.32;3.72;;;;;;;25.48;50.01;100818.64;1864149;77;21066;-59
2021/06/11 11:30:46;;;;;;;6.70;3.70;;;;;;;25.51;50.46;100827.73;1863944;77;21137;-58
2021/06/11 11:33:14;;;;;;;6.47;4.05;;;;;;;25.37;49.50;100826.45;1864154;77;21046;-58
2021/06/11 11:35:46;;;;;;;5.92;3.67;;;;;;;25.01;50.01;100824.56;1864151;77;21473;-59
2021/06/11 11:38:15;;;;;;;6.97;4.20;;;;;;;24.92;51.01;100832.67;1864233;77;21626;-59